Terminal Aerodrome Forecast
Issued by NWS Boston, MA

Home | Current Version | Previous Version | Text Only | Print | Product List | Glossary On
Versions: 1 2 3 4 5 6 7 8 9 10 11 12 13 14 15 16 17 18 19 20 21
000
FTUS41 KBOX 201120
TAFBDL
TAF
KBDL 201120Z 2012/2118 31005KT P6SM FEW040
     FM201400 34010G19KT P6SM FEW040
     FM202200 35005KT P6SM SKC
     FM210600 00000KT P6SM SKC
     FM211700 17004KT P6SM SCT150=

USA.gov is the U.S. government's official web portal to all federal, state and local government web resources and services.